createdAt,value
2017-02-17T00:00:34.842Z,1019.4
2017-02-17T00:01:15.473Z,1019.41
2017-02-17T00:01:56.079Z,1019.4
2017-02-17T00:02:36.674Z,1019.41
2017-02-17T00:03:17.269Z,1019.37
2017-02-17T00:03:57.853Z,1019.35
2017-02-17T00:04:38.507Z,1019.37
2017-02-17T00:05:19.176Z,1019.35
2017-02-17T00:05:59.727Z,1019.33
2017-02-17T00:06:40.307Z,1019.3
2017-02-17T00:07:20.954Z,1019.31
2017-02-17T00:08:01.566Z,1019.3
2017-02-17T00:08:42.205Z,1019.29
2017-02-17T00:09:22.846Z,1019.29
2017-02-17T00:10:03.500Z,1019.29
2017-02-17T00:10:44.081Z,1019.28
2017-02-17T00:11:24.695Z,1019.22
2017-02-17T00:12:05.344Z,1019.26
2017-02-17T00:12:45.946Z,1019.27
2017-02-17T00:13:26.536Z,1019.26
2017-02-17T00:14:07.155Z,1019.27
2017-02-17T00:14:47.789Z,1019.23
2017-02-17T00:15:28.413Z,1019.22
2017-02-17T00:16:09.063Z,1019.2
2017-02-17T00:16:49.696Z,1019.22
2017-02-17T00:17:30.286Z,1019.2
2017-02-17T00:18:10.927Z,1019.22
2017-02-17T00:18:51.580Z,1019.2
2017-02-17T00:19:32.209Z,1019.18
2017-02-17T00:20:12.801Z,1019.17
2017-02-17T00:20:53.431Z,1019.19
2017-02-17T00:21:34.049Z,1019.14
2017-02-17T00:22:14.641Z,1019.18
2017-02-17T00:22:55.226Z,1019.17
2017-02-17T00:23:35.820Z,1019.16
2017-02-17T00:24:16.434Z,1019.18
2017-02-17T00:24:57.095Z,1019.18
2017-02-17T00:25:37.794Z,1019.17
2017-02-17T00:26:18.384Z,1019.14
2017-02-17T00:26:59.022Z,1019.13
2017-02-17T00:27:39.660Z,1019.15
2017-02-17T00:28:20.276Z,1019.14
2017-02-17T00:29:00.895Z,1019.1
2017-02-17T00:29:41.501Z,1019.14
2017-02-17T00:30:22.126Z,1019.14
2017-02-17T00:31:02.815Z,1019.09
2017-02-17T00:31:43.373Z,1019.09
2017-02-17T00:32:23.950Z,1019.13
2017-02-17T00:33:04.555Z,1019.14
2017-02-17T00:33:45.186Z,1019.09
2017-02-17T00:34:25.764Z,1019.14
2017-02-17T00:35:06.422Z,1019.15
2017-02-17T00:35:47.003Z,1019.08
2017-02-17T00:36:27.608Z,1019.11
2017-02-17T00:37:08.202Z,1019.14
2017-02-17T00:37:48.848Z,1019.11
2017-02-17T00:38:29.498Z,1019.1
2017-02-17T00:39:10.152Z,1019.09
2017-02-17T00:39:50.761Z,1019.11
2017-02-17T00:40:31.358Z,1019.1
2017-02-17T00:41:11.974Z,1019.1
2017-02-17T00:41:52.567Z,1019.07
2017-02-17T00:42:33.152Z,1019.08
2017-02-17T00:43:13.739Z,1019.08
2017-02-17T00:43:54.405Z,1019.1
2017-02-17T00:44:35.048Z,1019.06
2017-02-17T00:45:15.643Z,1019.06
2017-02-17T00:45:56.276Z,1019.04
2017-02-17T00:46:36.882Z,1019.07
2017-02-17T00:47:17.532Z,1019.04
2017-02-17T00:47:58.117Z,1019.04
2017-02-17T00:48:38.720Z,1019.03
2017-02-17T00:49:19.331Z,1019.03
2017-02-17T00:49:59.966Z,1019.02
2017-02-17T00:50:40.563Z,1019.01
2017-02-17T00:51:21.159Z,1019.02
2017-02-17T00:52:01.755Z,1019.01
2017-02-17T00:52:42.406Z,1019
2017-02-17T00:53:23.039Z,1018.98
2017-02-17T00:54:03.691Z,1018.99
2017-02-17T00:54:45.242Z,1018.96
2017-02-17T00:55:25.825Z,1019.01
2017-02-17T00:56:06.444Z,1019.02
2017-02-17T00:56:47.055Z,1018.99
2017-02-17T00:57:27.659Z,1018.96
2017-02-17T00:58:08.259Z,1018.97
2017-02-17T00:58:48.883Z,1018.98
2017-02-17T00:59:29.457Z,1019.01
2017-02-17T01:00:10.083Z,1018.98
2017-02-17T01:00:50.657Z,1019.01
2017-02-17T01:01:31.269Z,1018.95
2017-02-17T01:02:11.868Z,1018.99
2017-02-17T01:02:52.486Z,1018.96
2017-02-17T01:03:33.043Z,1018.99
2017-02-17T01:04:13.681Z,1018.96
2017-02-17T01:04:54.296Z,1018.99
2017-02-17T01:05:34.873Z,1018.95
2017-02-17T01:06:15.493Z,1018.94
2017-02-17T01:06:56.098Z,1018.93
2017-02-17T01:07:36.761Z,1018.96
2017-02-17T01:08:17.455Z,1018.94
2017-02-17T01:08:58.084Z,1018.9
2017-02-17T01:09:38.694Z,1018.93
2017-02-17T01:10:19.328Z,1018.92
2017-02-17T01:10:59.914Z,1018.89
2017-02-17T01:11:40.714Z,1018.89
2017-02-17T01:12:21.327Z,1018.88
2017-02-17T01:13:01.967Z,1018.89
2017-02-17T01:13:42.549Z,1018.88
2017-02-17T01:14:23.164Z,1018.89
2017-02-17T01:15:03.813Z,1018.91
2017-02-17T01:15:44.393Z,1018.91
2017-02-17T01:16:25.038Z,1018.92
2017-02-17T01:17:05.604Z,1018.93
2017-02-17T01:17:46.166Z,1018.9
2017-02-17T01:18:26.744Z,1018.89
2017-02-17T01:19:07.319Z,1018.95
2017-02-17T01:19:47.894Z,1018.95
2017-02-17T01:20:28.491Z,1018.95
2017-02-17T01:21:09.114Z,1018.92
2017-02-17T01:21:49.718Z,1018.95
2017-02-17T01:22:30.297Z,1018.92
2017-02-17T01:23:11.512Z,1018.96
2017-02-17T01:23:52.151Z,1018.96
2017-02-17T01:24:32.763Z,1018.91
2017-02-17T01:25:27.459Z,1018.93
2017-02-17T01:26:08.073Z,1018.94
2017-02-17T01:26:48.678Z,1018.96
2017-02-17T01:27:29.270Z,1018.94
2017-02-17T01:28:09.915Z,1018.98
2017-02-17T01:28:50.487Z,1018.97
2017-02-17T01:29:31.104Z,1018.96
2017-02-17T01:30:11.734Z,1018.93
2017-02-17T01:30:53.144Z,1018.93
2017-02-17T01:31:33.725Z,1018.95
2017-02-17T01:32:14.334Z,1018.93
2017-02-17T01:32:54.979Z,1018.92
2017-02-17T01:33:35.606Z,1018.94
2017-02-17T01:34:16.190Z,1018.91
2017-02-17T01:34:56.811Z,1018.88
2017-02-17T01:35:37.395Z,1018.87
2017-02-17T01:36:18.016Z,1018.89
2017-02-17T01:36:58.588Z,1018.85
2017-02-17T01:37:39.179Z,1018.83
2017-02-17T01:38:19.892Z,1018.86
2017-02-17T01:39:00.508Z,1018.83
2017-02-17T01:39:41.150Z,1018.83
2017-02-17T01:40:21.746Z,1018.8
2017-02-17T01:41:02.328Z,1018.82
2017-02-17T01:41:42.963Z,1018.79
2017-02-17T01:42:23.615Z,1018.8
2017-02-17T01:43:04.240Z,1018.77
2017-02-17T01:43:44.830Z,1018.79
2017-02-17T01:44:25.468Z,1018.74
2017-02-17T01:45:06.097Z,1018.76
2017-02-17T01:45:46.743Z,1018.76
2017-02-17T01:46:27.331Z,1018.73
2017-02-17T01:47:07.944Z,1018.71
2017-02-17T01:47:48.536Z,1018.7
2017-02-17T01:48:29.140Z,1018.76
2017-02-17T01:49:09.726Z,1018.76
2017-02-17T01:49:50.339Z,1018.73
2017-02-17T01:50:31.001Z,1018.73
2017-02-17T01:51:11.628Z,1018.76
2017-02-17T01:51:52.250Z,1018.71
2017-02-17T01:52:32.914Z,1018.66
2017-02-17T01:53:13.534Z,1018.71
2017-02-17T01:53:54.176Z,1018.67
2017-02-17T01:54:34.772Z,1018.66
2017-02-17T01:55:15.376Z,1018.65
2017-02-17T01:55:56.024Z,1018.62
2017-02-17T01:56:36.662Z,1018.65
2017-02-17T01:57:17.280Z,1018.63
2017-02-17T01:57:57.863Z,1018.63
2017-02-17T01:58:39.039Z,1018.65
2017-02-17T01:59:19.691Z,1018.59
2017-02-17T02:00:00.263Z,1018.58
2017-02-17T02:00:40.906Z,1018.56
2017-02-17T02:01:21.555Z,1018.55
2017-02-17T02:02:02.140Z,1018.56
2017-02-17T02:02:42.725Z,1018.58
2017-02-17T02:03:23.349Z,1018.57
2017-02-17T02:04:03.967Z,1018.59
2017-02-17T02:04:44.537Z,1018.62
2017-02-17T02:05:25.168Z,1018.63
2017-02-17T02:06:05.765Z,1018.63
2017-02-17T02:06:46.367Z,1018.6
2017-02-17T02:07:26.950Z,1018.57
2017-02-17T02:08:07.537Z,1018.59
2017-02-17T02:08:48.157Z,1018.64
2017-02-17T02:09:28.741Z,1018.64
2017-02-17T02:10:09.374Z,1018.64
2017-02-17T02:10:49.999Z,1018.62
2017-02-17T02:11:30.609Z,1018.65
2017-02-17T02:12:11.208Z,1018.63
2017-02-17T02:12:51.769Z,1018.58
2017-02-17T02:13:32.425Z,1018.59
2017-02-17T02:14:12.994Z,1018.58
2017-02-17T02:14:53.592Z,1018.59
2017-02-17T02:15:34.227Z,1018.53
2017-02-17T02:16:14.821Z,1018.56
2017-02-17T02:16:55.572Z,1018.53
2017-02-17T02:17:36.133Z,1018.52
2017-02-17T02:18:16.745Z,1018.45
2017-02-17T02:18:57.288Z,1018.43
2017-02-17T02:19:37.910Z,1018.42
2017-02-17T02:20:18.516Z,1018.38
2017-02-17T02:20:59.110Z,1018.41
2017-02-17T02:21:39.853Z,1018.37
2017-02-17T02:22:20.455Z,1018.35
2017-02-17T02:23:01.064Z,1018.36
2017-02-17T02:23:41.726Z,1018.32
2017-02-17T02:24:22.329Z,1018.32
2017-02-17T02:25:02.906Z,1018.32
2017-02-17T02:25:43.507Z,1018.31
2017-02-17T02:26:24.094Z,1018.29
2017-02-17T02:27:04.658Z,1018.27
2017-02-17T02:27:45.219Z,1018.29
2017-02-17T02:28:25.884Z,1018.3
2017-02-17T02:29:06.443Z,1018.29
2017-02-17T02:29:47.092Z,1018.3
2017-02-17T02:30:27.695Z,1018.3
2017-02-17T02:31:08.289Z,1018.31
2017-02-17T02:31:48.894Z,1018.32
2017-02-17T02:32:29.583Z,1018.28
2017-02-17T02:33:10.174Z,1018.31
2017-02-17T02:33:50.826Z,1018.28
2017-02-17T02:34:31.460Z,1018.31
2017-02-17T02:35:12.070Z,1018.3
2017-02-17T02:35:52.707Z,1018.31
2017-02-17T02:36:33.374Z,1018.28
2017-02-17T02:37:13.982Z,1018.28
2017-02-17T02:37:54.537Z,1018.23
2017-02-17T02:38:35.192Z,1018.26
2017-02-17T02:39:15.876Z,1018.24
2017-02-17T02:39:56.490Z,1018.2
2017-02-17T02:40:37.059Z,1018.2
2017-02-17T02:41:17.646Z,1018.19
2017-02-17T02:41:58.299Z,1018.19
2017-02-17T02:42:38.888Z,1018.16
2017-02-17T02:43:19.506Z,1018.17
2017-02-17T02:44:00.103Z,1018.19
2017-02-17T02:44:40.682Z,1018.14
2017-02-17T02:45:21.293Z,1018.14
2017-02-17T02:46:01.892Z,1018.16
2017-02-17T02:46:42.502Z,1018.15
2017-02-17T02:47:23.091Z,1018.16
2017-02-17T02:48:03.757Z,1018.16
2017-02-17T02:48:44.446Z,1018.14
2017-02-17T02:49:25.035Z,1018.11
2017-02-17T02:50:05.677Z,1018.11
2017-02-17T02:50:46.285Z,1018.14
2017-02-17T02:51:26.923Z,1018.11
2017-02-17T02:52:07.546Z,1018.13
2017-02-17T02:52:48.206Z,1018.08
2017-02-17T02:53:28.782Z,1018.11
2017-02-17T02:54:09.366Z,1018.09
2017-02-17T02:54:49.973Z,1018.11
2017-02-17T02:55:30.600Z,1018.1
2017-02-17T02:56:11.189Z,1018.06
2017-02-17T02:56:51.771Z,1018.03
2017-02-17T02:57:32.353Z,1018.07
2017-02-17T02:58:12.970Z,1018.11
2017-02-17T02:58:53.583Z,1018.05
2017-02-17T02:59:34.157Z,1018.1
2017-02-17T03:00:14.753Z,1018.11
2017-02-17T03:00:55.381Z,1018.14
2017-02-17T03:01:35.979Z,1018.09
2017-02-17T03:02:16.593Z,1018.1
2017-02-17T03:02:57.217Z,1018.12
2017-02-17T03:03:37.847Z,1018.08
2017-02-17T03:04:18.442Z,1018.05
2017-02-17T03:04:59.031Z,1018.06
2017-02-17T03:05:39.626Z,1018.05
2017-02-17T03:06:20.231Z,1018.11
2017-02-17T03:07:00.897Z,1018.05
2017-02-17T03:07:41.528Z,1018.08
2017-02-17T03:08:22.120Z,1018.07
2017-02-17T03:09:02.775Z,1018.04
2017-02-17T03:09:43.379Z,1018.06
2017-02-17T03:10:24.011Z,1018.08
2017-02-17T03:11:04.668Z,1018.07
2017-02-17T03:11:45.286Z,1018.05
2017-02-17T03:12:25.852Z,1018.06
2017-02-17T03:13:06.438Z,1018.04
2017-02-17T03:13:47.038Z,1018.07
2017-02-17T03:14:27.618Z,1018.05
2017-02-17T03:15:08.208Z,1018.05
2017-02-17T03:15:48.792Z,1018.03
2017-02-17T03:16:29.404Z,1018.02
2017-02-17T03:17:10.027Z,1018.03
2017-02-17T03:17:50.595Z,1018.01
2017-02-17T03:18:31.197Z,1018
2017-02-17T03:19:11.832Z,1018
2017-02-17T03:19:52.416Z,1017.95
2017-02-17T03:20:33.071Z,1017.99
2017-02-17T03:21:13.677Z,1017.97
2017-02-17T03:21:54.286Z,1017.96
2017-02-17T03:22:34.907Z,1017.97
2017-02-17T03:23:15.545Z,1017.97
2017-02-17T03:23:56.159Z,1017.95
2017-02-17T03:24:36.785Z,1017.95
2017-02-17T03:25:17.459Z,1017.94
2017-02-17T03:25:58.090Z,1017.92
2017-02-17T03:26:38.687Z,1017.89
2017-02-17T03:27:19.291Z,1017.88
2017-02-17T03:27:59.888Z,1017.87
2017-02-17T03:28:40.462Z,1017.86
2017-02-17T03:29:21.066Z,1017.84
2017-02-17T03:30:01.644Z,1017.92
2017-02-17T03:30:42.263Z,1017.87
2017-02-17T03:31:22.898Z,1017.87
2017-02-17T03:32:03.514Z,1017.89
2017-02-17T03:32:44.117Z,1017.88
2017-02-17T03:33:24.700Z,1017.85
2017-02-17T03:34:05.293Z,1017.88
2017-02-17T03:34:45.929Z,1017.84
2017-02-17T03:35:26.523Z,1017.78
2017-02-17T03:36:07.097Z,1017.77
2017-02-17T03:36:47.731Z,1017.81
2017-02-17T03:37:29.268Z,1017.75
2017-02-17T03:38:09.861Z,1017.71
2017-02-17T03:38:50.522Z,1017.68
2017-02-17T03:39:31.113Z,1017.69
2017-02-17T03:40:11.712Z,1017.66
2017-02-17T03:40:52.325Z,1017.62
2017-02-17T03:41:32.939Z,1017.62
2017-02-17T03:42:13.526Z,1017.61
2017-02-17T03:42:54.138Z,1017.64
2017-02-17T03:43:34.774Z,1017.64
2017-02-17T03:44:15.355Z,1017.64
2017-02-17T03:44:55.986Z,1017.68
2017-02-17T03:45:36.638Z,1017.65
2017-02-17T03:46:17.213Z,1017.65
2017-02-17T03:46:57.835Z,1017.65
2017-02-17T03:47:38.443Z,1017.68
2017-02-17T03:48:19.076Z,1017.72
2017-02-17T03:48:59.710Z,1017.68
2017-02-17T03:49:40.306Z,1017.71
2017-02-17T03:50:20.918Z,1017.68
2017-02-17T03:51:01.565Z,1017.68
2017-02-17T03:51:42.183Z,1017.7
2017-02-17T03:52:22.883Z,1017.74
2017-02-17T03:53:03.506Z,1017.73
2017-02-17T03:53:44.097Z,1017.75
2017-02-17T03:54:24.745Z,1017.75
2017-02-17T03:55:05.374Z,1017.78
2017-02-17T03:55:45.979Z,1017.81
2017-02-17T03:56:26.607Z,1017.84
2017-02-17T03:57:07.247Z,1017.79
2017-02-17T03:57:47.911Z,1017.8
2017-02-17T03:58:28.524Z,1017.76
2017-02-17T03:59:09.116Z,1017.74
2017-02-17T03:59:49.732Z,1017.74
2017-02-17T04:00:30.341Z,1017.72
2017-02-17T04:01:10.942Z,1017.69
2017-02-17T04:01:51.534Z,1017.66
2017-02-17T04:02:32.133Z,1017.66
2017-02-17T04:03:12.729Z,1017.73
2017-02-17T04:03:53.329Z,1017.67
2017-02-17T04:04:33.925Z,1017.69
2017-02-17T04:05:14.530Z,1017.65
2017-02-17T04:05:55.184Z,1017.68
2017-02-17T04:06:35.724Z,1017.65
2017-02-17T04:07:16.357Z,1017.63
2017-02-17T04:07:56.964Z,1017.62
2017-02-17T04:08:37.547Z,1017.61
2017-02-17T04:09:18.198Z,1017.61
2017-02-17T04:09:58.839Z,1017.63
2017-02-17T04:10:39.454Z,1017.56
2017-02-17T04:11:20.103Z,1017.58
2017-02-17T04:12:00.736Z,1017.59
2017-02-17T04:12:41.356Z,1017.59
2017-02-17T04:13:21.982Z,1017.6
2017-02-17T04:14:02.620Z,1017.6
2017-02-17T04:14:43.237Z,1017.55
2017-02-17T04:15:23.859Z,1017.61
2017-02-17T04:16:04.439Z,1017.61
2017-02-17T04:16:45.045Z,1017.6
2017-02-17T04:17:25.751Z,1017.57
2017-02-17T04:18:06.357Z,1017.62
2017-02-17T04:18:46.959Z,1017.57
2017-02-17T04:19:27.570Z,1017.59
2017-02-17T04:20:08.165Z,1017.61
2017-02-17T04:20:48.803Z,1017.58
2017-02-17T04:21:29.461Z,1017.54
2017-02-17T04:22:10.008Z,1017.57
2017-02-17T04:22:50.659Z,1017.53
2017-02-17T04:23:31.782Z,1017.54
2017-02-17T04:24:12.403Z,1017.51
2017-02-17T04:24:53.008Z,1017.5
2017-02-17T04:25:33.669Z,1017.47
2017-02-17T04:26:14.268Z,1017.45
2017-02-17T04:26:54.838Z,1017.48
2017-02-17T04:27:35.418Z,1017.46
2017-02-17T04:28:16.005Z,1017.42
2017-02-17T04:28:56.585Z,1017.44
2017-02-17T04:29:37.188Z,1017.42
2017-02-17T04:30:17.769Z,1017.45
2017-02-17T04:30:58.369Z,1017.42
2017-02-17T04:31:38.948Z,1017.42
2017-02-17T04:32:19.554Z,1017.44
2017-02-17T04:33:00.147Z,1017.41
2017-02-17T04:33:40.718Z,1017.4
2017-02-17T04:34:21.319Z,1017.37
2017-02-17T04:35:01.964Z,1017.44
2017-02-17T04:35:42.551Z,1017.44
2017-02-17T04:36:23.127Z,1017.41
2017-02-17T04:37:03.701Z,1017.38
2017-02-17T04:37:44.344Z,1017.41
2017-02-17T04:38:24.933Z,1017.43
2017-02-17T04:39:05.510Z,1017.41
2017-02-17T04:39:46.129Z,1017.38
2017-02-17T04:40:26.711Z,1017.4
2017-02-17T04:41:07.330Z,1017.4
2017-02-17T04:41:48.011Z,1017.39
2017-02-17T04:42:28.585Z,1017.36
2017-02-17T04:43:09.251Z,1017.39
2017-02-17T04:43:49.843Z,1017.36
2017-02-17T04:44:30.569Z,1017.36
2017-02-17T04:45:11.182Z,1017.39
2017-02-17T04:45:51.791Z,1017.41
2017-02-17T04:46:32.384Z,1017.37
2017-02-17T04:47:12.962Z,1017.37
2017-02-17T04:47:53.560Z,1017.34
2017-02-17T04:48:34.147Z,1017.37
2017-02-17T04:49:14.812Z,1017.31
2017-02-17T04:49:55.390Z,1017.34
2017-02-17T04:50:36.025Z,1017.34
2017-02-17T04:51:16.613Z,1017.34
2017-02-17T04:51:57.199Z,1017.33
2017-02-17T04:52:37.851Z,1017.34
2017-02-17T04:53:18.475Z,1017.32
2017-02-17T04:53:59.038Z,1017.29
2017-02-17T04:54:39.608Z,1017.29
2017-02-17T04:55:20.241Z,1017.27
2017-02-17T04:56:00.872Z,1017.31
2017-02-17T04:56:41.436Z,1017.31
2017-02-17T04:57:22.030Z,1017.27
2017-02-17T04:58:02.642Z,1017.28
2017-02-17T04:58:43.271Z,1017.24
2017-02-17T04:59:23.894Z,1017.25
2017-02-17T05:00:04.535Z,1017.23
2017-02-17T05:00:45.151Z,1017.17
2017-02-17T05:01:25.722Z,1017.17
2017-02-17T05:02:06.351Z,1017.19
2017-02-17T05:02:46.952Z,1017.17
2017-02-17T05:03:27.551Z,1017.17
2017-02-17T05:04:08.128Z,1017.15
2017-02-17T05:04:48.710Z,1017.17
2017-02-17T05:05:29.334Z,1017.16
2017-02-17T05:06:09.984Z,1017.15
2017-02-17T05:06:50.580Z,1017.16
2017-02-17T05:07:31.195Z,1017.16
2017-02-17T05:08:11.792Z,1017.14
2017-02-17T05:08:52.395Z,1017.14
2017-02-17T05:09:33.019Z,1017.1
2017-02-17T05:10:13.615Z,1017.15
2017-02-17T05:10:54.208Z,1017.15
2017-02-17T05:11:34.820Z,1017.13
2017-02-17T05:12:15.409Z,1017.15
2017-02-17T05:12:56.079Z,1017.12
2017-02-17T05:13:36.668Z,1017.13
2017-02-17T05:14:17.270Z,1017.17
2017-02-17T05:14:57.848Z,1017.15
2017-02-17T05:15:38.464Z,1017.14
2017-02-17T05:16:19.098Z,1017.15
2017-02-17T05:16:59.686Z,1017.13
2017-02-17T05:17:40.302Z,1017.15
2017-02-17T05:18:20.871Z,1017.09
2017-02-17T05:19:01.419Z,1017.08
2017-02-17T05:19:42.069Z,1017.07
2017-02-17T05:20:22.631Z,1017.05
2017-02-17T05:21:03.256Z,1017.09
2017-02-17T05:21:43.855Z,1017.07
2017-02-17T05:22:24.476Z,1017.06
2017-02-17T05:23:05.079Z,1017.06
2017-02-17T05:23:45.638Z,1017.03
2017-02-17T05:24:26.227Z,1017.03
2017-02-17T05:25:06.843Z,1017.05
2017-02-17T05:25:47.447Z,1017.02
2017-02-17T05:26:28.060Z,1017.03
2017-02-17T05:27:08.670Z,1017.03
2017-02-17T05:27:49.300Z,1017.05
2017-02-17T05:28:29.898Z,1017.01
2017-02-17T05:29:10.511Z,1017.01
2017-02-17T05:29:51.164Z,1017.04
2017-02-17T05:30:31.790Z,1017.04
2017-02-17T05:31:12.415Z,1017.01
2017-02-17T05:31:53.021Z,1017.03
2017-02-17T05:32:33.592Z,1017.01
2017-02-17T05:33:14.177Z,1016.98
2017-02-17T05:33:54.749Z,1016.99
2017-02-17T05:34:35.358Z,1016.94
2017-02-17T05:35:15.941Z,1016.95
2017-02-17T05:35:56.547Z,1016.94
2017-02-17T05:36:37.140Z,1016.95
2017-02-17T05:37:17.738Z,1016.94
2017-02-17T05:37:58.337Z,1016.93
2017-02-17T05:38:38.928Z,1016.93
2017-02-17T05:39:19.633Z,1016.93
2017-02-17T05:40:00.258Z,1016.89
2017-02-17T05:40:40.840Z,1016.89
2017-02-17T05:41:21.435Z,1016.9
2017-02-17T05:42:02.086Z,1016.88
2017-02-17T05:42:42.741Z,1016.96
2017-02-17T05:43:23.330Z,1016.89
2017-02-17T05:44:03.910Z,1016.89
2017-02-17T05:44:44.544Z,1016.91
2017-02-17T05:45:25.164Z,1016.87
2017-02-17T05:46:05.779Z,1016.93
2017-02-17T05:46:46.373Z,1016.89
2017-02-17T05:47:27.007Z,1016.87
2017-02-17T05:48:07.627Z,1016.91
2017-02-17T05:48:48.236Z,1016.87
2017-02-17T05:49:28.817Z,1016.84
2017-02-17T05:50:09.432Z,1016.85
2017-02-17T05:50:50.101Z,1016.88
2017-02-17T05:51:30.692Z,1016.86
2017-02-17T05:52:11.249Z,1016.81
2017-02-17T05:52:51.863Z,1016.79
2017-02-17T05:53:32.469Z,1016.8
2017-02-17T05:54:13.102Z,1016.81
2017-02-17T05:54:53.719Z,1016.81
2017-02-17T05:55:34.344Z,1016.75
2017-02-17T05:56:14.944Z,1016.77
2017-02-17T05:56:55.558Z,1016.75
2017-02-17T05:57:36.138Z,1016.73
2017-02-17T05:58:16.731Z,1016.75
2017-02-17T05:58:57.334Z,1016.74
2017-02-17T05:59:37.942Z,1016.72
2017-02-17T06:00:18.565Z,1016.74
2017-02-17T06:00:59.218Z,1016.73
2017-02-17T06:01:39.811Z,1016.72
2017-02-17T06:02:20.409Z,1016.71
2017-02-17T06:03:01.153Z,1016.7
2017-02-17T06:03:41.727Z,1016.71
2017-02-17T06:04:22.315Z,1016.7
2017-02-17T06:05:02.915Z,1016.71
2017-02-17T06:05:43.542Z,1016.71
2017-02-17T06:06:24.171Z,1016.69
2017-02-17T06:07:04.834Z,1016.71
2017-02-17T06:07:45.479Z,1016.75
2017-02-17T06:08:26.095Z,1016.77
2017-02-17T06:09:06.683Z,1016.76
2017-02-17T06:09:47.317Z,1016.77
2017-02-17T06:10:27.959Z,1016.78
2017-02-17T06:11:08.563Z,1016.78
2017-02-17T06:11:49.230Z,1016.77
2017-02-17T06:12:29.829Z,1016.76
2017-02-17T06:13:10.435Z,1016.74
2017-02-17T06:13:51.014Z,1016.71
2017-02-17T06:14:31.610Z,1016.72
2017-02-17T06:15:12.241Z,1016.79
2017-02-17T06:15:52.842Z,1016.8
2017-02-17T06:16:33.405Z,1016.81
2017-02-17T06:17:13.987Z,1016.78
2017-02-17T06:17:54.591Z,1016.85
2017-02-17T06:18:35.208Z,1016.81
2017-02-17T06:19:15.793Z,1016.85
2017-02-17T06:19:56.426Z,1016.87
2017-02-17T06:22:55.308Z,1016.84
2017-02-17T06:23:35.875Z,1016.81
2017-02-17T06:24:16.452Z,1016.8
2017-02-17T06:24:57.085Z,1016.8
2017-02-17T06:25:37.693Z,1016.82
2017-02-17T06:26:18.305Z,1016.8
2017-02-17T06:26:58.913Z,1016.84
2017-02-17T06:27:39.511Z,1016.84
2017-02-17T06:28:20.101Z,1016.84
2017-02-17T06:29:00.682Z,1016.86
2017-02-17T06:29:41.224Z,1016.86
2017-02-17T06:30:21.781Z,1016.9
2017-02-17T06:31:02.352Z,1016.9
2017-02-17T06:31:43.016Z,1016.9
2017-02-17T06:32:23.624Z,1016.93
2017-02-17T06:33:04.223Z,1016.89
2017-02-17T06:33:44.821Z,1016.91
2017-02-17T06:34:25.449Z,1016.92
2017-02-17T06:35:06.053Z,1016.88
2017-02-17T06:35:47.630Z,1016.88
2017-02-17T06:36:28.256Z,1016.87
2017-02-17T06:37:08.854Z,1016.87
2017-02-17T06:37:49.506Z,1016.9
2017-02-17T06:38:30.164Z,1016.87
2017-02-17T06:39:10.827Z,1016.88
2017-02-17T06:39:51.420Z,1016.9
2017-02-17T06:40:32.019Z,1016.9
2017-02-17T06:41:12.631Z,1016.92
2017-02-17T06:41:53.200Z,1016.9
2017-02-17T06:42:33.767Z,1016.86
2017-02-17T06:43:14.400Z,1016.86
2017-02-17T06:43:55.015Z,1016.86
2017-02-17T06:44:35.598Z,1016.84
2017-02-17T06:45:16.197Z,1016.85
2017-02-17T06:45:56.786Z,1016.87
2017-02-17T06:46:37.456Z,1016.88
2017-02-17T06:47:18.130Z,1016.88
2017-02-17T06:47:58.770Z,1016.95
2017-02-17T06:48:39.386Z,1016.88
2017-02-17T06:49:19.975Z,1016.89
2017-02-17T06:50:00.578Z,1016.9
2017-02-17T06:50:41.225Z,1016.92
2017-02-17T06:51:21.800Z,1016.89
2017-02-17T06:52:02.382Z,1016.94
2017-02-17T06:52:42.963Z,1016.88
2017-02-17T06:53:23.583Z,1016.92
2017-02-17T06:54:04.175Z,1016.88
2017-02-17T06:54:44.773Z,1016.83
2017-02-17T06:55:25.417Z,1016.9
2017-02-17T06:56:06.068Z,1016.9
2017-02-17T06:56:46.643Z,1016.83
2017-02-17T06:57:27.210Z,1016.82
2017-02-17T06:58:07.816Z,1016.8
2017-02-17T06:58:48.478Z,1016.81
2017-02-17T06:59:29.120Z,1016.77
2017-02-17T07:00:09.719Z,1016.76
2017-02-17T07:00:50.352Z,1016.73
2017-02-17T07:01:30.920Z,1016.78
2017-02-17T07:02:11.525Z,1016.71
2017-02-17T07:02:52.146Z,1016.7
2017-02-17T07:03:32.773Z,1016.72
2017-02-17T07:04:13.396Z,1016.73
2017-02-17T07:04:53.976Z,1016.76
2017-02-17T07:05:34.580Z,1016.75
2017-02-17T07:06:15.240Z,1016.71
2017-02-17T07:06:55.787Z,1016.73
2017-02-17T07:07:36.398Z,1016.75
2017-02-17T07:08:17.015Z,1016.75
2017-02-17T07:08:57.633Z,1016.76
2017-02-17T07:09:38.241Z,1016.78
2017-02-17T07:10:18.841Z,1016.75
2017-02-17T07:10:59.435Z,1016.71
2017-02-17T07:11:40.063Z,1016.72
2017-02-17T07:12:20.647Z,1016.72
2017-02-17T07:13:01.278Z,1016.7
2017-02-17T07:13:41.894Z,1016.7
2017-02-17T07:14:22.455Z,1016.73
2017-02-17T07:15:03.084Z,1016.76
2017-02-17T07:15:43.729Z,1016.76
2017-02-17T07:16:24.306Z,1016.76
2017-02-17T07:17:04.888Z,1016.79
2017-02-17T07:17:45.519Z,1016.78
2017-02-17T07:18:26.107Z,1016.78
2017-02-17T07:19:06.738Z,1016.81
2017-02-17T07:19:47.402Z,1016.81
2017-02-17T07:20:27.985Z,1016.89
2017-02-17T07:21:08.589Z,1016.88
2017-02-17T07:21:49.203Z,1016.89
2017-02-17T07:22:29.819Z,1016.94
2017-02-17T07:23:10.400Z,1016.92
2017-02-17T07:23:50.982Z,1016.92
2017-02-17T07:24:31.568Z,1016.92
2017-02-17T07:25:12.144Z,1016.95
2017-02-17T07:25:52.708Z,1016.95
2017-02-17T07:26:33.290Z,1016.97
2017-02-17T07:27:13.943Z,1016.94
2017-02-17T07:27:54.516Z,1016.97
2017-02-17T07:28:35.250Z,1016.95
2017-02-17T07:29:15.857Z,1016.93
2017-02-17T07:29:56.505Z,1016.9
2017-02-17T07:30:37.096Z,1016.97
2017-02-17T07:31:17.678Z,1016.94
2017-02-17T07:31:58.313Z,1016.92
2017-02-17T07:32:38.915Z,1016.91
2017-02-17T07:33:19.501Z,1016.9
2017-02-17T07:34:00.139Z,1016.96
2017-02-17T07:34:40.797Z,1016.91
2017-02-17T07:35:21.424Z,1016.89
2017-02-17T07:36:02.081Z,1016.93
2017-02-17T07:36:42.753Z,1016.9
2017-02-17T07:37:23.401Z,1016.96
2017-02-17T07:38:04.112Z,1016.89
2017-02-17T07:38:44.831Z,1016.94
2017-02-17T07:39:25.485Z,1016.94
2017-02-17T07:40:06.147Z,1016.95
2017-02-17T07:40:46.796Z,1016.94
2017-02-17T07:41:27.463Z,1016.99
2017-02-17T07:42:08.119Z,1016.96
2017-02-17T07:42:48.780Z,1016.95
2017-02-17T07:43:29.429Z,1016.97
2017-02-17T07:44:10.116Z,1016.96
2017-02-17T07:44:50.767Z,1016.92
2017-02-17T07:45:31.447Z,1016.95
2017-02-17T07:46:12.125Z,1016.92
2017-02-17T07:46:52.765Z,1016.92
2017-02-17T07:47:33.467Z,1016.99
2017-02-17T07:48:14.132Z,1016.97
2017-02-17T07:48:54.750Z,1016.99
2017-02-17T07:49:35.409Z,1016.97
2017-02-17T07:50:16.015Z,1016.99
2017-02-17T07:50:56.602Z,1016.98
2017-02-17T07:51:37.199Z,1016.96
2017-02-17T07:52:17.815Z,1017.01
2017-02-17T07:52:58.414Z,1017.01
2017-02-17T07:53:39.022Z,1016.96
2017-02-17T07:54:19.646Z,1016.97
2017-02-17T07:55:00.263Z,1016.97
2017-02-17T07:55:40.925Z,1016.99
2017-02-17T07:56:21.530Z,1016.97
2017-02-17T07:57:02.186Z,1017.01
2017-02-17T07:57:42.777Z,1016.93
2017-02-17T07:58:23.356Z,1016.97
2017-02-17T07:59:03.993Z,1016.98
2017-02-17T07:59:44.630Z,1016.98
2017-02-17T08:00:25.258Z,1016.99
2017-02-17T08:01:05.849Z,1016.94
2017-02-17T08:01:46.467Z,1016.96
2017-02-17T08:02:27.087Z,1016.95
2017-02-17T08:03:07.728Z,1016.96
2017-02-17T08:03:48.366Z,1016.97
2017-02-17T08:04:29.008Z,1016.94
2017-02-17T08:05:09.680Z,1016.98
2017-02-17T08:05:50.414Z,1016.97
2017-02-17T08:06:31.094Z,1016.97
2017-02-17T08:07:11.835Z,1016.97
2017-02-17T08:07:52.508Z,1016.98
2017-02-17T08:08:33.174Z,1016.96
2017-02-17T08:09:13.868Z,1016.98
2017-02-17T08:09:54.521Z,1016.96
2017-02-17T08:10:35.321Z,1017.01
2017-02-17T08:11:16.031Z,1017.07
2017-02-17T08:11:56.719Z,1017.02
2017-02-17T08:12:37.520Z,1017.05
2017-02-17T08:13:18.255Z,1017.02
2017-02-17T08:13:58.945Z,1017.04
2017-02-17T08:14:39.604Z,1017
2017-02-17T08:15:20.240Z,1016.99
2017-02-17T08:16:00.919Z,1017.06